sensor_id;sensor_type;location;lat;lon;timestamp;pressure;altitude;pressure_sealevel;temperature
71897;BMP280;59767;51.344;12.362;2022-08-18T00:02:37;99810.88;;;23.57
71897;BMP280;59767;51.344;12.362;2022-08-18T00:05:46;99816.78;;;23.52
71897;BMP280;59767;51.344;12.362;2022-08-18T00:08:50;99825.31;;;23.48
71897;BMP280;59767;51.344;12.362;2022-08-18T00:11:56;99810.03;;;23.41
71897;BMP280;59767;51.344;12.362;2022-08-18T00:15:00;99809.03;;;23.47
71897;BMP280;59767;51.344;12.362;2022-08-18T00:18:07;99806.72;;;23.51
71897;BMP280;59767;51.344;12.362;2022-08-18T00:21:11;99811.13;;;23.50
71897;BMP280;59767;51.344;12.362;2022-08-18T00:24:15;99803.38;;;23.50
71897;BMP280;59767;51.344;12.362;2022-08-18T00:27:27;99804.63;;;23.53
71897;BMP280;59767;51.344;12.362;2022-08-18T00:30:32;99809.28;;;23.56
71897;BMP280;59767;51.344;12.362;2022-08-18T00:33:36;99808.53;;;23.60
71897;BMP280;59767;51.344;12.362;2022-08-18T00:36:40;99808.81;;;23.64
71897;BMP280;59767;51.344;12.362;2022-08-18T00:39:44;99813.97;;;23.69
71897;BMP280;59767;51.344;12.362;2022-08-18T00:42:54;99807.22;;;23.73
71897;BMP280;59767;51.344;12.362;2022-08-18T00:46:00;99812.94;;;23.70
71897;BMP280;59767;51.344;12.362;2022-08-18T00:49:05;99808.00;;;23.63
71897;BMP280;59767;51.344;12.362;2022-08-18T00:52:11;99807.78;;;23.60
71897;BMP280;59767;51.344;12.362;2022-08-18T00:55:16;99820.19;;;23.58
71897;BMP280;59767;51.344;12.362;2022-08-18T00:58:34;99806.72;;;23.56
71897;BMP280;59767;51.344;12.362;2022-08-18T01:01:40;99809.31;;;23.61
71897;BMP280;59767;51.344;12.362;2022-08-18T01:04:52;99810.34;;;23.60
71897;BMP280;59767;51.344;12.362;2022-08-18T01:07:59;99808.78;;;23.54
71897;BMP280;59767;51.344;12.362;2022-08-18T01:11:03;99803.09;;;23.47
71897;BMP280;59767;51.344;12.362;2022-08-18T01:14:08;99793.50;;;23.42
71897;BMP280;59767;51.344;12.362;2022-08-18T01:17:13;99795.31;;;23.42
71897;BMP280;59767;51.344;12.362;2022-08-18T01:20:42;99805.66;;;23.42
71897;BMP280;59767;51.344;12.362;2022-08-18T01:24:26;99803.56;;;23.34
71897;BMP280;59767;51.344;12.362;2022-08-18T01:27:50;99799.69;;;23.31
71897;BMP280;59767;51.344;12.362;2022-08-18T01:30:56;99796.06;;;23.32
71897;BMP280;59767;51.344;12.362;2022-08-18T01:34:01;99797.09;;;23.31
71897;BMP280;59767;51.344;12.362;2022-08-18T01:37:05;99796.81;;;23.23
71897;BMP280;59767;51.344;12.362;2022-08-18T01:40:12;99798.31;;;23.19
71897;BMP280;59767;51.344;12.362;2022-08-18T01:43:36;99805.34;;;23.18
71897;BMP280;59767;51.344;12.362;2022-08-18T01:46:41;99786.69;;;23.16
71897;BMP280;59767;51.344;12.362;2022-08-18T01:49:45;99789.56;;;23.15
71897;BMP280;59767;51.344;12.362;2022-08-18T01:52:50;99793.44;;;23.17
71897;BMP280;59767;51.344;12.362;2022-08-18T01:55:56;99789.56;;;23.15
71897;BMP280;59767;51.344;12.362;2022-08-18T01:59:00;99795.22;;;23.12
71897;BMP280;59767;51.344;12.362;2022-08-18T02:02:04;99785.94;;;23.11
71897;BMP280;59767;51.344;12.362;2022-08-18T02:05:11;99784.38;;;23.15
71897;BMP280;59767;51.344;12.362;2022-08-18T02:08:16;99782.56;;;23.10
71897;BMP280;59767;51.344;12.362;2022-08-18T02:11:20;99773.00;;;23.11
71897;BMP280;59767;51.344;12.362;2022-08-18T02:14:25;99777.38;;;23.10
71897;BMP280;59767;51.344;12.362;2022-08-18T02:17:36;99782.28;;;23.12
71897;BMP280;59767;51.344;12.362;2022-08-18T02:20:41;99783.56;;;23.09
71897;BMP280;59767;51.344;12.362;2022-08-18T02:23:48;99784.09;;;23.11
71897;BMP280;59767;51.344;12.362;2022-08-18T02:26:57;99798.06;;;23.10
71897;BMP280;59767;51.344;12.362;2022-08-18T02:30:05;99800.34;;;23.02
71897;BMP280;59767;51.344;12.362;2022-08-18T02:33:10;99791.03;;;22.96
71897;BMP280;59767;51.344;12.362;2022-08-18T02:36:14;99789.19;;;22.91
71897;BMP280;59767;51.344;12.362;2022-08-18T02:39:18;99782.22;;;22.87
71897;BMP280;59767;51.344;12.362;2022-08-18T02:42:22;99788.38;;;22.86
71897;BMP280;59767;51.344;12.362;2022-08-18T02:45:27;99790.22;;;22.85
71897;BMP280;59767;51.344;12.362;2022-08-18T02:48:32;99791.22;;;22.84
71897;BMP280;59767;51.344;12.362;2022-08-18T02:51:36;99790.72;;;22.82
71897;BMP280;59767;51.344;12.362;2022-08-18T02:54:41;99794.28;;;22.76
71897;BMP280;59767;51.344;12.362;2022-08-18T02:57:47;99795.03;;;22.72
71897;BMP280;59767;51.344;12.362;2022-08-18T03:00:52;99800.19;;;22.72
71897;BMP280;59767;51.344;12.362;2022-08-18T03:03:56;99793.19;;;22.67
71897;BMP280;59767;51.344;12.362;2022-08-18T03:07:04;99788.25;;;22.61
71897;BMP280;59767;51.344;12.362;2022-08-18T03:10:09;99794.19;;;22.57
71897;BMP280;59767;51.344;12.362;2022-08-18T03:13:33;99800.06;;;22.47
71897;BMP280;59767;51.344;12.362;2022-08-18T03:16:43;99795.94;;;22.46
71897;BMP280;59767;51.344;12.362;2022-08-18T03:19:57;99798.75;;;22.45
71897;BMP280;59767;51.344;12.362;2022-08-18T03:23:04;99803.69;;;22.46
71897;BMP280;59767;51.344;12.362;2022-08-18T03:26:14;99815.81;;;22.46
71897;BMP280;59767;51.344;12.362;2022-08-18T03:29:19;99813.78;;;22.48
71897;BMP280;59767;51.344;12.362;2022-08-18T03:32:23;99815.84;;;22.51
71897;BMP280;59767;51.344;12.362;2022-08-18T03:35:27;99818.16;;;22.47
71897;BMP280;59767;51.344;12.362;2022-08-18T03:38:33;99825.91;;;22.47
71897;BMP280;59767;51.344;12.362;2022-08-18T03:41:40;99818.66;;;22.44
71897;BMP280;59767;51.344;12.362;2022-08-18T03:45:01;99818.66;;;22.44
71897;BMP280;59767;51.344;12.362;2022-08-18T03:48:20;99823.81;;;22.44
71897;BMP280;59767;51.344;12.362;2022-08-18T03:51:27;99817.88;;;22.44
71897;BMP280;59767;51.344;12.362;2022-08-18T03:54:32;99819.66;;;22.43
71897;BMP280;59767;51.344;12.362;2022-08-18T03:57:36;99806.78;;;22.48
71897;BMP280;59767;51.344;12.362;2022-08-18T04:00:42;99801.09;;;22.41
71897;BMP280;59767;51.344;12.362;2022-08-18T04:03:51;99810.28;;;22.32
71897;BMP280;59767;51.344;12.362;2022-08-18T04:07:06;99815.91;;;22.24
71897;BMP280;59767;51.344;12.362;2022-08-18T04:10:10;99808.66;;;22.21
71897;BMP280;59767;51.344;12.362;2022-08-18T04:13:22;99820.56;;;22.22
71897;BMP280;59767;51.344;12.362;2022-08-18T04:16:28;99814.59;;;22.22
71897;BMP280;59767;51.344;12.362;2022-08-18T04:19:35;99811.53;;;22.25
71897;BMP280;59767;51.344;12.362;2022-08-18T04:22:41;99819.78;;;22.27
71897;BMP280;59767;51.344;12.362;2022-08-18T04:25:44;99825.22;;;22.25
71897;BMP280;59767;51.344;12.362;2022-08-18T04:28:48;99827.31;;;22.28
71897;BMP280;59767;51.344;12.362;2022-08-18T04:31:53;99831.44;;;22.29
71897;BMP280;59767;51.344;12.362;2022-08-18T04:34:57;99834.53;;;22.31
71897;BMP280;59767;51.344;12.362;2022-08-18T04:38:05;99825.28;;;22.30
71897;BMP280;59767;51.344;12.362;2022-08-18T04:41:11;99829.38;;;22.31
71897;BMP280;59767;51.344;12.362;2022-08-18T04:44:16;99835.88;;;22.34
71897;BMP280;59767;51.344;12.362;2022-08-18T04:47:21;99835.88;;;22.34
71897;BMP280;59767;51.344;12.362;2022-08-18T04:50:25;99838.19;;;22.35
71897;BMP280;59767;51.344;12.362;2022-08-18T04:53:30;99833.56;;;22.37
71897;BMP280;59767;51.344;12.362;2022-08-18T04:56:49;99847.00;;;22.39
71897;BMP280;59767;51.344;12.362;2022-08-18T04:59:53;99848.28;;;22.42
71897;BMP280;59767;51.344;12.362;2022-08-18T05:02:57;99848.84;;;22.44
71897;BMP280;59767;51.344;12.362;2022-08-18T05:06:03;99857.94;;;22.51
71897;BMP280;59767;51.344;12.362;2022-08-18T05:09:08;99870.91;;;22.56
71897;BMP280;59767;51.344;12.362;2022-08-18T05:12:14;99859.53;;;22.57
71897;BMP280;59767;51.344;12.362;2022-08-18T05:15:18;99862.66;;;22.59
71897;BMP280;59767;51.344;12.362;2022-08-18T05:18:24;99866.84;;;22.70
71897;BMP280;59767;51.344;12.362;2022-08-18T05:21:30;99867.94;;;22.74
71897;BMP280;59767;51.344;12.362;2022-08-18T05:24:36;99860.19;;;22.79
71897;BMP280;59767;51.344;12.362;2022-08-18T05:27:41;99861.00;;;22.84
71897;BMP280;59767;51.344;12.362;2022-08-18T05:30:46;99860.25;;;22.89
71897;BMP280;59767;51.344;12.362;2022-08-18T05:33:51;99861.84;;;22.95
71897;BMP280;59767;51.344;12.362;2022-08-18T05:40:09;99865.53;;;23.04
71897;BMP280;59767;51.344;12.362;2022-08-18T05:43:15;99869.38;;;23.06
71897;BMP280;59767;51.344;12.362;2022-08-18T05:46:53;99876.38;;;23.06
71897;BMP280;59767;51.344;12.362;2022-08-18T05:50:07;99869.63;;;23.05
71897;BMP280;59767;51.344;12.362;2022-08-18T05:53:14;99877.16;;;23.11
71897;BMP280;59767;51.344;12.362;2022-08-18T05:56:23;99877.19;;;23.16
71897;BMP280;59767;51.344;12.362;2022-08-18T05:59:47;99875.41;;;23.27
71897;BMP280;59767;51.344;12.362;2022-08-18T06:02:56;99884.53;;;23.34
71897;BMP280;59767;51.344;12.362;2022-08-18T06:06:07;99884.81;;;23.43
71897;BMP280;59767;51.344;12.362;2022-08-18T06:09:25;99879.16;;;23.56
71897;BMP280;59767;51.344;12.362;2022-08-18T06:12:34;99885.63;;;23.63
71897;BMP280;59767;51.344;12.362;2022-08-18T06:26:53;99878.47;;;23.85
71897;BMP280;59767;51.344;12.362;2022-08-18T06:33:34;99883.88;;;23.94
71897;BMP280;59767;51.344;12.362;2022-08-18T06:36:52;99887.50;;;24.03
71897;BMP280;59767;51.344;12.362;2022-08-18T06:39:56;99879.25;;;24.06
71897;BMP280;59767;51.344;12.362;2022-08-18T06:43:01;99884.44;;;24.21
71897;BMP280;59767;51.344;12.362;2022-08-18T06:46:11;99880.28;;;24.35
71897;BMP280;59767;51.344;12.362;2022-08-18T06:49:36;99886.00;;;24.42
71897;BMP280;59767;51.344;12.362;2022-08-18T06:52:59;99883.13;;;24.38
71897;BMP280;59767;51.344;12.362;2022-08-18T06:56:27;99897.88;;;24.43
71897;BMP280;59767;51.344;12.362;2022-08-18T06:59:35;99904.63;;;24.34
71897;BMP280;59767;51.344;12.362;2022-08-18T07:02:46;99911.38;;;24.45
71897;BMP280;59767;51.344;12.362;2022-08-18T07:06:05;99910.28;;;24.56
71897;BMP280;59767;51.344;12.362;2022-08-18T07:09:23;99924.00;;;24.76
71897;BMP280;59767;51.344;12.362;2022-08-18T07:12:28;99933.84;;;24.84
71897;BMP280;59767;51.344;12.362;2022-08-18T07:15:35;99933.03;;;25.03
71897;BMP280;59767;51.344;12.362;2022-08-18T07:18:40;99941.81;;;25.12
71897;BMP280;59767;51.344;12.362;2022-08-18T07:21:46;99941.81;;;25.12
71897;BMP280;59767;51.344;12.362;2022-08-18T07:25:03;99950.66;;;25.06
71897;BMP280;59767;51.344;12.362;2022-08-18T07:28:36;99950.69;;;24.86
71897;BMP280;59767;51.344;12.362;2022-08-18T07:31:44;99947.34;;;24.71
71897;BMP280;59767;51.344;12.362;2022-08-18T07:34:53;99956.13;;;24.85
71897;BMP280;59767;51.344;12.362;2022-08-18T07:41:51;99961.81;;;25.02
71897;BMP280;59767;51.344;12.362;2022-08-18T07:45:23;99966.94;;;25.17
71897;BMP280;59767;51.344;12.362;2022-08-18T07:48:32;99957.31;;;25.32
71897;BMP280;59767;51.344;12.362;2022-08-18T07:51:58;99959.88;;;25.42
71897;BMP280;59767;51.344;12.362;2022-08-18T07:55:28;99947.38;;;25.49
71897;BMP280;59767;51.344;12.362;2022-08-18T07:58:41;99960.94;;;25.31
71897;BMP280;59767;51.344;12.362;2022-08-18T08:02:06;99953.69;;;25.28
71897;BMP280;59767;51.344;12.362;2022-08-18T08:05:31;99962.97;;;25.39
71897;BMP280;59767;51.344;12.362;2022-08-18T08:08:53;99962.38;;;25.62
71897;BMP280;59767;51.344;12.362;2022-08-18T08:12:12;99956.66;;;25.65
71897;BMP280;59767;51.344;12.362;2022-08-18T08:15:50;99968.03;;;25.69
71897;BMP280;59767;51.344;12.362;2022-08-18T08:19:09;99983.59;;;25.69
71897;BMP280;59767;51.344;12.362;2022-08-18T08:22:23;99978.09;;;25.81
71897;BMP280;59767;51.344;12.362;2022-08-18T08:32:27;99944.03;;;26.77
71897;BMP280;59767;51.344;12.362;2022-08-18T08:35:42;99945.72;;;26.92
71897;BMP280;59767;51.344;12.362;2022-08-18T08:38:57;99943.16;;;27.10
71897;BMP280;59767;51.344;12.362;2022-08-18T08:42:24;99948.72;;;26.99
71897;BMP280;59767;51.344;12.362;2022-08-18T08:46:09;99946.06;;;26.85
71897;BMP280;59767;51.344;12.362;2022-08-18T08:49:37;99959.63;;;26.54
71897;BMP280;59767;51.344;12.362;2022-08-18T08:56:05;99957.00;;;26.26
71897;BMP280;59767;51.344;12.362;2022-08-18T08:59:12;99958.47;;;26.37
71897;BMP280;59767;51.344;12.362;2022-08-18T09:06:24;99962.06;;;26.69
71897;BMP280;59767;51.344;12.362;2022-08-18T09:09:58;99956.00;;;26.55
71897;BMP280;59767;51.344;12.362;2022-08-18T09:20:24;99940.50;;;27.15
71897;BMP280;59767;51.344;12.362;2022-08-18T09:23:33;99939.09;;;27.23
71897;BMP280;59767;51.344;12.362;2022-08-18T09:26:48;99920.63;;;27.01
71897;BMP280;59767;51.344;12.362;2022-08-18T09:29:56;99916.69;;;27.03
71897;BMP280;59767;51.344;12.362;2022-08-18T09:40:30;99943.03;;;26.97
71897;BMP280;59767;51.344;12.362;2022-08-18T09:54:23;99935.63;;;27.09
71897;BMP280;59767;51.344;12.362;2022-08-18T09:57:29;99938.66;;;27.16
71897;BMP280;59767;51.344;12.362;2022-08-18T10:04:33;99928.69;;;27.23
71897;BMP280;59767;51.344;12.362;2022-08-18T10:07:38;99925.44;;;27.31
71897;BMP280;59767;51.344;12.362;2022-08-18T10:11:17;99919.22;;;27.50
71897;BMP280;59767;51.344;12.362;2022-08-18T10:18:28;99925.00;;;27.47
71897;BMP280;59767;51.344;12.362;2022-08-18T10:25:04;99946.75;;;27.33
71897;BMP280;59767;51.344;12.362;2022-08-18T10:28:52;99954.53;;;27.38
71897;BMP280;59767;51.344;12.362;2022-08-18T10:38:42;99941.22;;;27.58
71897;BMP280;59767;51.344;12.362;2022-08-18T10:41:57;99945.44;;;27.54
71897;BMP280;59767;51.344;12.362;2022-08-18T10:45:11;99937.44;;;27.50
71897;BMP280;59767;51.344;12.362;2022-08-18T10:48:30;99953.63;;;27.47
71897;BMP280;59767;51.344;12.362;2022-08-18T11:01:52;99953.09;;;27.03
71897;BMP280;59767;51.344;12.362;2022-08-18T11:05:03;99944.03;;;26.77
71897;BMP280;59767;51.344;12.362;2022-08-18T11:08:17;99938.28;;;26.57
71897;BMP280;59767;51.344;12.362;2022-08-18T11:11:28;99932.31;;;26.57
71897;BMP280;59767;51.344;12.362;2022-08-18T11:18:07;99949.31;;;26.44
71897;BMP280;59767;51.344;12.362;2022-08-18T11:25:01;99949.13;;;26.36
71897;BMP280;59767;51.344;12.362;2022-08-18T11:28:15;99956.47;;;26.29
71897;BMP280;59767;51.344;12.362;2022-08-18T11:31:22;99957.00;;;26.26
71897;BMP280;59767;51.344;12.362;2022-08-18T11:34:33;99966.69;;;26.20
71897;BMP280;59767;51.344;12.362;2022-08-18T11:37:54;99963.72;;;26.32
71897;BMP280;59767;51.344;12.362;2022-08-18T11:41:19;99963.63;;;26.42
71897;BMP280;59767;51.344;12.362;2022-08-18T11:44:48;99964.41;;;26.42
71897;BMP280;59767;51.344;12.362;2022-08-18T11:51:10;99962.38;;;26.34
71897;BMP280;59767;51.344;12.362;2022-08-18T11:54:35;99952.50;;;26.36
71897;BMP280;59767;51.344;12.362;2022-08-18T11:57:59;99960.88;;;26.28
71897;BMP280;59767;51.344;12.362;2022-08-18T12:01:05;99949.19;;;26.26
71897;BMP280;59767;51.344;12.362;2022-08-18T12:04:13;99956.75;;;26.27
71897;BMP280;59767;51.344;12.362;2022-08-18T12:07:33;99952.59;;;26.26
71897;BMP280;59767;51.344;12.362;2022-08-18T12:10:37;99945.03;;;26.30
71897;BMP280;59767;51.344;12.362;2022-08-18T12:13:48;99952.72;;;26.40
71897;BMP280;59767;51.344;12.362;2022-08-18T12:17:00;99963.50;;;26.57
71897;BMP280;59767;51.344;12.362;2022-08-18T12:20:05;99965.28;;;26.61
71897;BMP280;59767;51.344;12.362;2022-08-18T12:23:15;99961.69;;;26.57
71897;BMP280;59767;51.344;12.362;2022-08-18T12:26:19;99966.06;;;26.62
71897;BMP280;59767;51.344;12.362;2022-08-18T12:29:42;99973.34;;;26.60
71897;BMP280;59767;51.344;12.362;2022-08-18T12:32:46;99975.25;;;26.54
71897;BMP280;59767;51.344;12.362;2022-08-18T12:36:10;99973.94;;;26.52
71897;BMP280;59767;51.344;12.362;2022-08-18T12:39:17;99977.44;;;26.37
71897;BMP280;59767;51.344;12.362;2022-08-18T12:42:24;99984.28;;;26.28
71897;BMP280;59767;51.344;12.362;2022-08-18T12:45:29;99978.59;;;26.21
71897;BMP280;59767;51.344;12.362;2022-08-18T12:48:35;99987.47;;;26.15
71897;BMP280;59767;51.344;12.362;2022-08-18T12:51:42;99981.31;;;26.06
71897;BMP280;59767;51.344;12.362;2022-08-18T12:54:47;99982.13;;;26.02
71897;BMP280;59767;51.344;12.362;2022-08-18T12:57:59;99981.97;;;25.83
71897;BMP280;59767;51.344;12.362;2022-08-18T13:01:03;99970.91;;;25.68
71897;BMP280;59767;51.344;12.362;2022-08-18T13:04:08;99980.34;;;25.44
71897;BMP280;59767;51.344;12.362;2022-08-18T13:07:16;99964.88;;;25.24
71897;BMP280;59767;51.344;12.362;2022-08-18T14:22:43;99881.75;;;24.76
71897;BMP280;59767;51.344;12.362;2022-08-18T14:26:09;99875.53;;;24.77
71897;BMP280;59767;51.344;12.362;2022-08-18T14:29:32;99883.84;;;24.79
71897;BMP280;59767;51.344;12.362;2022-08-18T14:32:50;99883.06;;;24.78
71897;BMP280;59767;51.344;12.362;2022-08-18T14:35:56;99895.78;;;24.75
71897;BMP280;59767;51.344;12.362;2022-08-18T14:39:12;99893.69;;;24.67
71897;BMP280;59767;51.344;12.362;2022-08-18T14:42:17;99892.91;;;24.66
71897;BMP280;59767;51.344;12.362;2022-08-18T14:45:44;99885.66;;;24.63
71897;BMP280;59767;51.344;12.362;2022-08-18T14:48:51;99869.38;;;24.53
71897;BMP280;59767;51.344;12.362;2022-08-18T14:51:57;99835.72;;;24.38
71897;BMP280;59767;51.344;12.362;2022-08-18T14:55:01;99820.19;;;24.33
71897;BMP280;59767;51.344;12.362;2022-08-18T14:58:05;99808.84;;;24.14
71897;BMP280;59767;51.344;12.362;2022-08-18T15:01:13;99800.00;;;24.05
71897;BMP280;59767;51.344;12.362;2022-08-18T15:04:20;99780.88;;;23.96
71897;BMP280;59767;51.344;12.362;2022-08-18T15:07:25;99766.88;;;23.97
71897;BMP280;59767;51.344;12.362;2022-08-18T15:10:31;99756.25;;;23.93
71897;BMP280;59767;51.344;12.362;2022-08-18T15:13:40;99760.69;;;23.93
71897;BMP280;59767;51.344;12.362;2022-08-18T15:16:48;99751.34;;;23.92
71897;BMP280;59767;51.344;12.362;2022-08-18T15:19:53;99751.88;;;23.99
71897;BMP280;59767;51.344;12.362;2022-08-18T15:23:03;99747.19;;;24.01
71897;BMP280;59767;51.344;12.362;2022-08-18T15:26:31;99745.09;;;24.13
71897;BMP280;59767;51.344;12.362;2022-08-18T15:29:37;99741.47;;;24.24
71897;BMP280;59767;51.344;12.362;2022-08-18T15:32:45;99746.63;;;24.34
71897;BMP280;59767;51.344;12.362;2022-08-18T15:35:52;99744.47;;;24.46
71897;BMP280;59767;51.344;12.362;2022-08-18T15:38:58;99749.38;;;24.52
71897;BMP280;59767;51.344;12.362;2022-08-18T15:42:09;99747.53;;;24.68
71897;BMP280;59767;51.344;12.362;2022-08-18T15:45:20;99761.00;;;24.65
71897;BMP280;59767;51.344;12.362;2022-08-18T15:48:29;99760.50;;;24.63
71897;BMP280;59767;51.344;12.362;2022-08-18T15:51:34;99757.38;;;24.71
71897;BMP280;59767;51.344;12.362;2022-08-18T15:54:43;99758.34;;;24.80
71897;BMP280;59767;51.344;12.362;2022-08-18T15:57:56;99758.09;;;24.81
71897;BMP280;59767;51.344;12.362;2022-08-18T16:01:01;99760.94;;;24.80
71897;BMP280;59767;51.344;12.362;2022-08-18T16:04:24;99762.50;;;24.81
71897;BMP280;59767;51.344;12.362;2022-08-18T16:07:28;99765.34;;;24.89
71897;BMP280;59767;51.344;12.362;2022-08-18T16:10:52;99751.03;;;24.91
71897;BMP280;59767;51.344;12.362;2022-08-18T16:13:57;99759.31;;;24.98
71897;BMP280;59767;51.344;12.362;2022-08-18T16:17:01;99754.09;;;25.03
71897;BMP280;59767;51.344;12.362;2022-08-18T16:20:17;99753.56;;;25.06
71897;BMP280;59767;51.344;12.362;2022-08-18T16:23:21;99763.38;;;25.09
71897;BMP280;59767;51.344;12.362;2022-08-18T16:26:25;99763.16;;;25.06
71897;BMP280;59767;51.344;12.362;2022-08-18T16:29:29;99765.00;;;25.05
71897;BMP280;59767;51.344;12.362;2022-08-18T16:32:33;99762.06;;;25.12
71897;BMP280;59767;51.344;12.362;2022-08-18T16:35:37;99763.84;;;25.21
71897;BMP280;59767;51.344;12.362;2022-08-18T16:38:46;99770.56;;;25.27
71897;BMP280;59767;51.344;12.362;2022-08-18T16:41:56;99762.28;;;25.20
71897;BMP280;59767;51.344;12.362;2022-08-18T16:45:01;99765.69;;;25.16
71897;BMP280;59767;51.344;12.362;2022-08-18T16:48:05;99768.84;;;25.08
71897;BMP280;59767;51.344;12.362;2022-08-18T16:51:15;99768.84;;;25.08
71897;BMP280;59767;51.344;12.362;2022-08-18T16:54:20;99765.81;;;24.96
71897;BMP280;59767;51.344;12.362;2022-08-18T16:57:24;99756.97;;;24.97
71897;BMP280;59767;51.344;12.362;2022-08-18T17:00:59;99759.84;;;24.95
71897;BMP280;59767;51.344;12.362;2022-08-18T17:04:23;99761.72;;;24.85
71897;BMP280;59767;51.344;12.362;2022-08-18T17:07:29;99765.38;;;24.79
71897;BMP280;59767;51.344;12.362;2022-08-18T17:10:34;99759.94;;;24.76
71897;BMP280;59767;51.344;12.362;2022-08-18T17:13:41;99761.50;;;24.77
71897;BMP280;59767;51.344;12.362;2022-08-18T17:16:47;99759.44;;;24.74
71897;BMP280;59767;51.344;12.362;2022-08-18T17:19:52;99764.84;;;24.77
71897;BMP280;59767;51.344;12.362;2022-08-18T17:22:56;99767.22;;;24.74
71897;BMP280;59767;51.344;12.362;2022-08-18T17:26:01;99759.72;;;24.72
71897;BMP280;59767;51.344;12.362;2022-08-18T17:35:40;99747.03;;;24.61
71897;BMP280;59767;51.344;12.362;2022-08-18T17:38:55;99746.78;;;24.57
71897;BMP280;59767;51.344;12.362;2022-08-18T17:42:02;99758.97;;;24.57
71897;BMP280;59767;51.344;12.362;2022-08-18T17:45:29;99769.31;;;24.57
71897;BMP280;59767;51.344;12.362;2022-08-18T17:48:40;99770.38;;;24.56
71897;BMP280;59767;51.344;12.362;2022-08-18T17:51:48;99766.75;;;24.57
71897;BMP280;59767;51.344;12.362;2022-08-18T17:55:06;99764.16;;;24.57
71897;BMP280;59767;51.344;12.362;2022-08-18T18:01:30;99763.69;;;24.45
71897;BMP280;59767;51.344;12.362;2022-08-18T18:04:42;99770.66;;;24.39
71897;BMP280;59767;51.344;12.362;2022-08-18T18:10:52;99766.31;;;24.35
71897;BMP280;59767;51.344;12.362;2022-08-18T18:14:37;99779.25;;;24.35
71897;BMP280;59767;51.344;12.362;2022-08-18T18:17:42;99764.22;;;24.32
71897;BMP280;59767;51.344;12.362;2022-08-18T18:21:06;99776.19;;;24.28
71897;BMP280;59767;51.344;12.362;2022-08-18T18:24:18;99782.91;;;24.24
71897;BMP280;59767;51.344;12.362;2022-08-18T18:30:43;99787.56;;;24.22
71897;BMP280;59767;51.344;12.362;2022-08-18T18:33:54;99786.03;;;24.21
71897;BMP280;59767;51.344;12.362;2022-08-18T18:37:00;99794.03;;;24.19
71897;BMP280;59767;51.344;12.362;2022-08-18T18:40:06;99787.81;;;24.20
71897;BMP280;59767;51.344;12.362;2022-08-18T18:43:26;99795.09;;;24.23
71897;BMP280;59767;51.344;12.362;2022-08-18T18:46:59;99791.97;;;24.26
71897;BMP280;59767;51.344;12.362;2022-08-18T18:54:03;99787.56;;;24.27
71897;BMP280;59767;51.344;12.362;2022-08-18T18:57:18;99789.13;;;24.28
71897;BMP280;59767;51.344;12.362;2022-08-18T19:03:48;99786.00;;;24.26
71897;BMP280;59767;51.344;12.362;2022-08-18T19:07:09;99782.91;;;24.24
71897;BMP280;59767;51.344;12.362;2022-08-18T19:10:34;99794.81;;;24.25
71897;BMP280;59767;51.344;12.362;2022-08-18T19:13:42;99787.31;;;24.23
71897;BMP280;59767;51.344;12.362;2022-08-18T19:16:59;99794.28;;;24.18
71897;BMP280;59767;51.344;12.362;2022-08-18T19:20:11;99793.78;;;24.16
71897;BMP280;59767;51.344;12.362;2022-08-18T19:23:38;99788.59;;;24.16
71897;BMP280;59767;51.344;12.362;2022-08-18T19:26:51;99790.44;;;24.15
71897;BMP280;59767;51.344;12.362;2022-08-18T19:30:04;99805.97;;;24.15
71897;BMP280;59767;51.344;12.362;2022-08-18T19:33:14;99803.66;;;24.14
71897;BMP280;59767;51.344;12.362;2022-08-18T19:36:38;99806.75;;;24.06
71897;BMP280;59767;51.344;12.362;2022-08-18T19:39:58;99798.19;;;24.05
71897;BMP280;59767;51.344;12.362;2022-08-18T19:43:11;99809.59;;;24.09
71897;BMP280;59767;51.344;12.362;2022-08-18T19:46:30;99812.94;;;24.05
71897;BMP280;59767;51.344;12.362;2022-08-18T19:49:48;99810.34;;;24.05
71897;BMP280;59767;51.344;12.362;2022-08-18T20:03:23;99820.47;;;23.91
71897;BMP280;59767;51.344;12.362;2022-08-18T20:13:43;99822.75;;;23.73
71897;BMP280;59767;51.344;12.362;2022-08-18T20:20:20;99829.19;;;23.55
71897;BMP280;59767;51.344;12.362;2022-08-18T20:23:33;99828.97;;;23.52
71897;BMP280;59767;51.344;12.362;2022-08-18T20:29:47;99842.38;;;23.44
71897;BMP280;59767;51.344;12.362;2022-08-18T20:36:24;99857.88;;;23.34
71897;BMP280;59767;51.344;12.362;2022-08-18T20:39:43;99864.50;;;23.10
71897;BMP280;59767;51.344;12.362;2022-08-18T20:42:47;99866.16;;;22.84
71897;BMP280;59767;51.344;12.362;2022-08-18T20:46:32;99876.38;;;22.64
71897;BMP280;59767;51.344;12.362;2022-08-18T20:53:39;99887.66;;;22.49
71897;BMP280;59767;51.344;12.362;2022-08-18T20:56:57;99881.13;;;22.41
71897;BMP280;59767;51.344;12.362;2022-08-18T21:03:18;99873.28;;;22.31
71897;BMP280;59767;51.344;12.362;2022-08-18T21:06:27;99863.44;;;22.28
71897;BMP280;59767;51.344;12.362;2022-08-18T21:09:34;99862.38;;;22.24
71897;BMP280;59767;51.344;12.362;2022-08-18T21:12:38;99853.53;;;22.15
71897;BMP280;59767;51.344;12.362;2022-08-18T21:15:55;99844.75;;;22.11
71897;BMP280;59767;51.344;12.362;2022-08-18T21:19:02;99842.16;;;22.11
71897;BMP280;59767;51.344;12.362;2022-08-18T21:22:09;99843.66;;;22.07
71897;BMP280;59767;51.344;12.362;2022-08-18T21:25:14;99834.56;;;22.00
71897;BMP280;59767;51.344;12.362;2022-08-18T21:28:21;99825.97;;;21.94
71897;BMP280;59767;51.344;12.362;2022-08-18T21:31:31;99810.97;;;21.91
71897;BMP280;59767;51.344;12.362;2022-08-18T21:34:48;99798.75;;;21.82
71897;BMP280;59767;51.344;12.362;2022-08-18T21:41:04;99781.63;;;21.71
71897;BMP280;59767;51.344;12.362;2022-08-18T21:44:32;99780.56;;;21.67
71897;BMP280;59767;51.344;12.362;2022-08-18T21:47:46;99775.63;;;21.60
71897;BMP280;59767;51.344;12.362;2022-08-18T21:50:57;99767.88;;;21.60
71897;BMP280;59767;51.344;12.362;2022-08-18T21:54:04;99758.00;;;21.52
71897;BMP280;59767;51.344;12.362;2022-08-18T21:57:27;99754.63;;;21.52
71897;BMP280;59767;51.344;12.362;2022-08-18T22:00:37;99744.53;;;21.50